Terminal Aerodrome Forecast
Issued by NWS

Home | Current Version | Previous Version | Graphics & Text | Print | Product List | Glossary On
Versions: 1 2 3 4 5 6 7 8 9 10 11 12 13 14 15 16 17
085
FTUS43 KABR 210520
TAFMBG
TAF
KMBG 210520Z 2106/2206 14004KT P6SM SKC
     FM211100 18007KT P6SM SCT200 WS020/28030KT
     FM211500 19006KT P6SM SCT200
     FM211700 26005KT P6SM SCT200
     FM220000 14006KT P6SM SCT250 WS020/26030KT
     FM220300 17006KT P6SM SCT100=

USA.gov is the U.S. government's official web portal to all federal, state and local government web resources and services.